createdAt,value
2023-01-25T00:01:27.891Z,4.95
2023-01-25T00:03:54.630Z,4.03
2023-01-25T00:06:21.507Z,4.45
2023-01-25T00:08:52.026Z,4.80
2023-01-25T00:11:19.821Z,4.60
2023-01-25T00:13:46.731Z,4.78
2023-01-25T00:16:13.737Z,4.90
2023-01-25T00:18:40.464Z,4.85
2023-01-25T00:21:22.506Z,4.82
2023-01-25T00:23:49.861Z,4.18
2023-01-25T00:26:17.363Z,5.05
2023-01-25T00:28:48.693Z,4.40
2023-01-25T00:31:39.964Z,5.28
2023-01-25T00:34:18.869Z,5.07
2023-01-25T00:36:45.829Z,4.53
2023-01-25T00:39:13.420Z,4.78
2023-01-25T00:41:40.696Z,5.10
2023-01-25T00:44:07.844Z,4.78
2023-01-25T00:46:34.555Z,4.75
2023-01-25T00:49:01.249Z,5.05
2023-01-25T00:51:28.283Z,5.22
2023-01-25T00:53:55.033Z,5.43
2023-01-25T00:56:21.940Z,5.53
2023-01-25T00:58:48.703Z,5.07
2023-01-25T01:01:18.116Z,4.88
2023-01-25T01:03:44.879Z,4.85
2023-01-25T01:06:13.544Z,5.28
2023-01-25T01:08:41.706Z,5.07
2023-01-25T01:11:11.501Z,5.22
2023-01-25T01:13:39.245Z,5.65
2023-01-25T01:16:11.240Z,5.20
2023-01-25T01:18:44.326Z,5.15
2023-01-25T01:21:12.757Z,4.72
2023-01-25T01:23:40.180Z,4.90
2023-01-25T01:26:08.926Z,5.57
2023-01-25T01:28:39.347Z,5.57
2023-01-25T01:31:18.126Z,5.20
2023-01-25T01:33:53.969Z,6.30
2023-01-25T01:36:23.437Z,5.72
2023-01-25T01:38:50.229Z,4.68
2023-01-25T01:41:17.714Z,4.63
2023-01-25T01:43:45.556Z,4.38
2023-01-25T01:46:47.622Z,5.32
2023-01-25T01:49:33.467Z,4.93
2023-01-25T01:52:17.508Z,4.93
2023-01-25T01:55:07.841Z,5.03
2023-01-25T01:57:41.911Z,5.20
2023-01-25T02:00:19.641Z,4.55
2023-01-25T02:02:47.605Z,4.88
2023-01-25T02:05:53.407Z,5.68
2023-01-25T02:08:20.795Z,5.03
2023-01-25T02:10:49.822Z,5.05
2023-01-25T02:13:18.940Z,5.57
2023-01-25T02:15:49.396Z,5.43
2023-01-25T02:18:17.517Z,4.82
2023-01-25T02:20:46.879Z,5.38
2023-01-25T02:23:26.791Z,5.05
2023-01-25T02:25:55.250Z,4.95
2023-01-25T02:29:04.736Z,5.13
2023-01-25T02:31:31.733Z,4.72
2023-01-25T02:34:00.175Z,5.38
2023-01-25T02:36:32.813Z,5.22
2023-01-25T02:39:08.251Z,5.15
2023-01-25T02:41:41.420Z,4.70
2023-01-25T02:44:26.328Z,5.38
2023-01-25T02:46:53.600Z,5.38
2023-01-25T02:49:21.125Z,4.97
2023-01-25T02:51:51.819Z,5.40
2023-01-25T02:54:20.807Z,5.07
2023-01-25T02:56:47.846Z,5.00
2023-01-25T02:59:14.858Z,5.50
2023-01-25T03:01:46.562Z,6.13
2023-01-25T03:04:13.977Z,5.32
2023-01-25T03:06:41.923Z,5.22
2023-01-25T03:09:10.747Z,4.75
2023-01-25T03:11:40.937Z,5.43
2023-01-25T03:14:07.968Z,4.50
2023-01-25T03:16:34.888Z,5.85
2023-01-25T03:19:02.868Z,4.90
2023-01-25T03:21:29.967Z,5.65
2023-01-25T03:23:59.998Z,5.30
2023-01-25T03:26:30.970Z,4.63
2023-01-25T03:29:09.390Z,5.30
2023-01-25T03:31:39.377Z,5.45
2023-01-25T03:34:06.901Z,6.13
2023-01-25T03:36:37.833Z,5.35
2023-01-25T03:39:04.884Z,5.03
2023-01-25T03:41:37.195Z,5.70
2023-01-25T03:44:06.388Z,5.20
2023-01-25T03:46:33.329Z,5.38
2023-01-25T03:49:00.091Z,5.63
2023-01-25T03:51:26.855Z,4.85
2023-01-25T03:53:53.723Z,5.65
2023-01-25T03:56:21.162Z,4.82
2023-01-25T03:58:58.214Z,5.03
2023-01-25T04:01:25.112Z,5.28
2023-01-25T04:03:52.983Z,5.25
2023-01-25T04:06:19.802Z,5.32
2023-01-25T04:08:46.501Z,5.53
2023-01-25T04:11:13.843Z,4.53
2023-01-25T04:13:43.864Z,6.10
2023-01-25T04:16:13.147Z,5.43
2023-01-25T04:19:02.831Z,5.82
2023-01-25T04:21:31.179Z,5.18
2023-01-25T04:23:58.006Z,5.68
2023-01-25T04:26:25.212Z,5.47
2023-01-25T04:28:56.400Z,5.20
2023-01-25T04:31:23.213Z,5.68
2023-01-25T04:33:51.367Z,5.35
2023-01-25T04:36:19.569Z,5.90
2023-01-25T04:38:46.400Z,5.97
2023-01-25T04:41:13.276Z,6.07
2023-01-25T04:43:41.874Z,5.22
2023-01-25T04:46:10.485Z,5.32
2023-01-25T04:48:37.382Z,5.75
2023-01-25T04:51:06.506Z,5.60
2023-01-25T04:53:34.461Z,6.30
2023-01-25T04:56:02.335Z,6.40
2023-01-25T04:58:33.940Z,5.25
2023-01-25T05:01:03.304Z,5.50
2023-01-25T05:03:31.919Z,5.88
2023-01-25T05:05:58.767Z,5.65
2023-01-25T05:08:26.752Z,5.20
2023-01-25T05:10:58.557Z,6.57
2023-01-25T05:13:36.686Z,6.13
2023-01-25T05:16:13.538Z,6.00
2023-01-25T05:18:48.403Z,5.35
2023-01-25T05:21:38.773Z,6.25
2023-01-25T05:24:06.463Z,7.05
2023-01-25T05:26:52.724Z,8.32
2023-01-25T05:29:19.840Z,8.80
2023-01-25T05:31:53.101Z,8.57
2023-01-25T05:34:19.952Z,8.38
2023-01-25T05:36:47.057Z,7.80
2023-01-25T05:39:14.101Z,8.30
2023-01-25T05:41:40.832Z,9.65
2023-01-25T05:44:07.680Z,8.90
2023-01-25T05:46:39.939Z,9.70
2023-01-25T05:49:07.009Z,9.23
2023-01-25T05:51:35.638Z,8.65
2023-01-25T05:54:12.961Z,8.82
2023-01-25T05:56:43.035Z,8.65
2023-01-25T05:59:11.963Z,9.20
2023-01-25T06:01:39.036Z,9.18
2023-01-25T06:04:06.460Z,9.02
2023-01-25T06:06:33.278Z,9.25
2023-01-25T06:09:01.885Z,10.18
2023-01-25T06:11:28.648Z,9.48
2023-01-25T06:13:55.803Z,9.88
2023-01-25T06:16:22.977Z,9.77
2023-01-25T06:19:01.988Z,9.60
2023-01-25T06:21:54.950Z,10.43
2023-01-25T06:24:21.777Z,9.32
2023-01-25T06:26:48.442Z,9.82
2023-01-25T06:29:15.126Z,10.98
2023-01-25T06:31:42.033Z,10.65
2023-01-25T06:34:11.599Z,10.90
2023-01-25T06:36:38.430Z,9.90
2023-01-25T06:39:05.348Z,11.23
2023-01-25T06:41:32.082Z,11.48
2023-01-25T06:43:58.843Z,10.95
2023-01-25T06:46:25.639Z,10.73
2023-01-25T06:48:52.526Z,10.35
2023-01-25T06:51:19.284Z,11.10
2023-01-25T06:53:47.111Z,11.20
2023-01-25T06:56:19.439Z,11.25
2023-01-25T06:58:46.793Z,11.77
2023-01-25T07:01:16.739Z,10.57
2023-01-25T07:03:43.554Z,10.68
2023-01-25T07:06:11.378Z,12.38
2023-01-25T07:08:39.363Z,10.27
2023-01-25T07:11:12.037Z,10.68
2023-01-25T07:13:38.812Z,10.32
2023-01-25T07:16:08.106Z,10.27
2023-01-25T07:18:37.551Z,11.65
2023-01-25T07:21:06.195Z,10.75
2023-01-25T07:23:34.038Z,11.65
2023-01-25T07:26:01.597Z,11.57
2023-01-25T07:28:28.626Z,11.95
2023-01-25T07:30:55.537Z,11.40
2023-01-25T07:33:22.437Z,11.95
2023-01-25T07:35:50.863Z,12.18
2023-01-25T07:38:17.760Z,12.10
2023-01-25T07:40:50.850Z,12.38
2023-01-25T07:43:17.559Z,10.98
2023-01-25T07:45:48.576Z,11.70
2023-01-25T07:48:16.896Z,12.70
2023-01-25T07:50:46.558Z,12.02
2023-01-25T07:53:13.803Z,12.15
2023-01-25T07:55:40.544Z,11.80
2023-01-25T07:58:08.238Z,11.95
2023-01-25T08:00:34.974Z,12.73
2023-01-25T08:03:01.655Z,11.23
2023-01-25T08:05:28.409Z,11.93
2023-01-25T08:07:55.223Z,11.55
2023-01-25T08:10:22.065Z,15.82
2023-01-25T08:12:48.883Z,15.52
2023-01-25T08:15:15.634Z,14.77
2023-01-25T08:17:42.370Z,14.60
2023-01-25T08:20:09.783Z,13.25
2023-01-25T08:22:36.661Z,13.98
2023-01-25T08:25:04.269Z,14.02
2023-01-25T08:27:30.989Z,14.38
2023-01-25T08:29:57.903Z,14.05
2023-01-25T08:32:24.756Z,12.60
2023-01-25T08:34:51.496Z,14.23
2023-01-25T08:37:18.198Z,12.88
2023-01-25T08:39:44.984Z,14.77
2023-01-25T08:42:11.710Z,14.63
2023-01-25T08:44:38.455Z,13.48
2023-01-25T08:47:05.442Z,12.38
2023-01-25T08:49:34.376Z,12.77
2023-01-25T08:52:01.330Z,13.07
2023-01-25T08:54:28.322Z,12.43
2023-01-25T08:56:55.094Z,11.48
2023-01-25T08:59:21.923Z,12.52
2023-01-25T09:01:48.643Z,10.80
2023-01-25T09:04:15.319Z,10.02
2023-01-25T09:06:42.058Z,9.95
2023-01-25T09:09:08.970Z,10.73
2023-01-25T09:11:40.560Z,11.00
2023-01-25T09:14:07.229Z,10.25
2023-01-25T09:16:40.541Z,10.63
2023-01-25T09:19:07.467Z,10.20
2023-01-25T09:21:34.721Z,9.85
2023-01-25T09:24:06.651Z,10.75
2023-01-25T09:26:39.948Z,10.13
2023-01-25T09:29:08.251Z,9.88
2023-01-25T09:31:36.958Z,10.20
2023-01-25T09:34:14.797Z,10.02
2023-01-25T09:36:41.533Z,9.90
2023-01-25T09:39:12.162Z,9.98
2023-01-25T09:42:14.719Z,10.50
2023-01-25T09:44:42.055Z,9.00
2023-01-25T09:47:29.177Z,10.77
2023-01-25T09:50:16.989Z,9.10
2023-01-25T09:52:58.870Z,10.07
2023-01-25T09:55:29.480Z,9.90
2023-01-25T09:58:00.235Z,9.55
2023-01-25T10:00:39.939Z,8.20
2023-01-25T10:03:20.318Z,9.80
2023-01-25T10:05:56.539Z,9.90
2023-01-25T10:08:40.173Z,9.82
2023-01-25T10:13:38.906Z,8.73
2023-01-25T10:16:20.911Z,9.35
2023-01-25T10:18:59.797Z,9.52
2023-01-25T10:21:29.681Z,9.50
2023-01-25T10:24:11.608Z,10.07
2023-01-25T10:27:06.713Z,10.00
2023-01-25T10:29:56.330Z,9.38
2023-01-25T10:32:32.553Z,9.43
2023-01-25T10:35:34.420Z,10.18
2023-01-25T10:38:11.420Z,9.73
2023-01-25T10:40:53.198Z,10.73
2023-01-25T10:43:30.024Z,9.65
2023-01-25T10:45:57.136Z,9.55
2023-01-25T10:48:29.970Z,10.00
2023-01-25T10:51:44.112Z,8.90
2023-01-25T10:54:17.357Z,9.23
2023-01-25T10:56:46.143Z,10.10
2023-01-25T10:59:29.243Z,9.98
2023-01-25T11:01:57.309Z,9.52
2023-01-25T11:04:31.440Z,9.63
2023-01-25T11:06:59.282Z,10.85
2023-01-25T11:09:28.688Z,10.00
2023-01-25T11:11:58.987Z,9.93
2023-01-25T11:14:27.649Z,10.05
2023-01-25T11:16:56.335Z,9.35
2023-01-25T11:19:32.105Z,8.90
2023-01-25T11:22:00.696Z,9.77
2023-01-25T11:24:30.496Z,9.90
2023-01-25T11:27:18.637Z,7.97
2023-01-25T11:29:47.098Z,8.63
2023-01-25T11:32:22.755Z,9.45
2023-01-25T11:34:50.882Z,8.93
2023-01-25T11:37:31.387Z,9.65
2023-01-25T11:40:19.969Z,8.63
2023-01-25T11:43:02.566Z,8.75
2023-01-25T11:46:01.596Z,8.98
2023-01-25T11:48:35.409Z,9.38
2023-01-25T11:51:19.487Z,10.07
2023-01-25T11:54:22.885Z,9.68
2023-01-25T11:57:05.535Z,9.57
2023-01-25T12:00:13.087Z,10.20
2023-01-25T12:03:09.481Z,9.65
2023-01-25T12:06:13.457Z,9.13
2023-01-25T12:08:58.071Z,9.55
2023-01-25T12:12:03.349Z,9.45
2023-01-25T12:15:00.876Z,9.23
2023-01-25T12:17:33.571Z,9.43
2023-01-25T12:20:14.193Z,9.40
2023-01-25T12:22:52.638Z,8.68
2023-01-25T12:26:11.913Z,9.00
2023-01-25T12:28:55.979Z,7.95
2023-01-25T12:31:35.706Z,8.70
2023-01-25T12:34:14.923Z,9.13
2023-01-25T12:36:45.949Z,7.93
2023-01-25T12:39:25.006Z,8.68
2023-01-25T12:42:07.872Z,9.07
2023-01-25T12:44:47.459Z,8.60
2023-01-25T12:47:21.231Z,8.30
2023-01-25T12:50:02.348Z,8.65
2023-01-25T12:52:39.474Z,8.23
2023-01-25T12:55:12.731Z,8.90
2023-01-25T12:57:47.668Z,8.95
2023-01-25T13:00:40.503Z,8.38
2023-01-25T13:03:28.444Z,8.77
2023-01-25T13:06:04.185Z,7.97
2023-01-25T13:08:42.507Z,7.78
2023-01-25T13:11:14.704Z,8.27
2023-01-25T13:13:41.448Z,8.38
2023-01-25T13:16:23.546Z,8.35
2023-01-25T13:18:50.554Z,8.00
2023-01-25T13:21:48.045Z,9.20
2023-01-25T13:24:21.227Z,9.95
2023-01-25T13:26:54.148Z,7.80
2023-01-25T13:29:36.162Z,8.27
2023-01-25T13:32:05.046Z,8.13
2023-01-25T13:34:46.500Z,9.18
2023-01-25T13:37:29.880Z,8.63
2023-01-25T13:40:07.649Z,9.00
2023-01-25T13:42:38.558Z,8.35
2023-01-25T13:45:08.524Z,6.97
2023-01-25T13:47:38.228Z,7.95
2023-01-25T13:50:22.005Z,7.68
2023-01-25T13:53:03.329Z,7.80
2023-01-25T13:55:39.568Z,7.22
2023-01-25T13:58:25.078Z,7.45
2023-01-25T14:00:56.263Z,7.30
2023-01-25T14:03:39.809Z,7.53
2023-01-25T14:06:14.301Z,7.35
2023-01-25T14:08:43.990Z,7.40
2023-01-25T14:11:10.775Z,6.10
2023-01-25T14:13:37.426Z,7.07
2023-01-25T14:16:12.355Z,7.38
2023-01-25T14:18:39.110Z,7.25
2023-01-25T14:21:20.240Z,6.55
2023-01-25T14:23:48.551Z,7.30
2023-01-25T14:26:24.575Z,6.63
2023-01-25T14:29:01.680Z,6.50
2023-01-25T14:31:36.739Z,6.07
2023-01-25T14:34:04.893Z,5.72
2023-01-25T14:36:35.110Z,6.70
2023-01-25T14:39:04.466Z,6.47
2023-01-25T14:41:38.884Z,6.88
2023-01-25T14:44:15.063Z,6.45
2023-01-25T14:46:42.146Z,9.05
2023-01-25T14:49:11.899Z,9.80
2023-01-25T14:51:49.064Z,9.32
2023-01-25T14:54:27.316Z,8.52
2023-01-25T14:57:22.915Z,7.72
2023-01-25T14:59:54.479Z,8.35
2023-01-25T15:02:36.073Z,7.97
2023-01-25T15:05:45.799Z,7.55
2023-01-25T15:08:27.674Z,7.25
2023-01-25T15:11:18.325Z,7.60
2023-01-25T15:13:45.164Z,7.40
2023-01-25T15:16:11.907Z,7.05
2023-01-25T15:18:52.527Z,7.82
2023-01-25T15:21:31.170Z,6.82
2023-01-25T15:24:06.736Z,6.78
2023-01-25T15:26:35.395Z,6.75
2023-01-25T15:29:08.145Z,5.88
2023-01-25T15:31:37.545Z,6.65
2023-01-25T15:34:04.954Z,6.97
2023-01-25T15:36:32.941Z,6.15
2023-01-25T15:39:00.018Z,5.75
2023-01-25T15:41:26.754Z,5.93
2023-01-25T15:43:53.488Z,5.97
2023-01-25T15:46:26.584Z,6.15
2023-01-25T15:48:53.615Z,5.68
2023-01-25T15:51:20.979Z,5.72
2023-01-25T15:53:47.883Z,5.80
2023-01-25T15:56:17.479Z,5.68
2023-01-25T15:58:56.037Z,5.25
2023-01-25T16:01:27.013Z,4.85
2023-01-25T16:03:59.044Z,4.65
2023-01-25T16:06:37.353Z,5.30
2023-01-25T16:09:17.083Z,5.15
2023-01-25T16:11:44.531Z,4.78
2023-01-25T16:14:11.617Z,4.97
2023-01-25T16:16:46.091Z,4.85
2023-01-25T16:19:15.353Z,4.80
2023-01-25T16:21:42.990Z,4.65
2023-01-25T16:24:11.208Z,4.65
2023-01-25T16:26:43.273Z,4.15
2023-01-25T16:29:11.141Z,4.95
2023-01-25T16:31:38.037Z,3.90
2023-01-25T16:34:04.876Z,4.57
2023-01-25T16:36:31.794Z,4.45
2023-01-25T16:39:13.213Z,4.95
2023-01-25T16:41:39.919Z,4.10
2023-01-25T16:44:07.173Z,4.05
2023-01-25T16:46:33.937Z,4.88
2023-01-25T16:49:10.401Z,4.07
2023-01-25T16:51:37.921Z,4.00
2023-01-25T16:54:04.834Z,4.05
2023-01-25T16:56:33.347Z,3.95
2023-01-25T16:59:05.528Z,4.88
2023-01-25T17:01:32.649Z,4.88
2023-01-25T17:03:59.845Z,3.67
2023-01-25T17:06:28.064Z,3.95
2023-01-25T17:09:02.152Z,4.15
2023-01-25T17:11:40.169Z,4.22
2023-01-25T17:14:07.614Z,4.03
2023-01-25T17:16:34.861Z,4.18
2023-01-25T17:19:04.566Z,3.75
2023-01-25T17:21:32.020Z,4.45
2023-01-25T17:23:59.920Z,4.40
2023-01-25T17:26:28.217Z,5.13
2023-01-25T17:29:00.339Z,4.93
2023-01-25T17:31:29.267Z,3.72
2023-01-25T17:33:56.275Z,4.50
2023-01-25T17:36:23.211Z,4.15
2023-01-25T17:38:49.973Z,3.70
2023-01-25T17:41:17.227Z,3.38
2023-01-25T17:43:44.167Z,4.35
2023-01-25T17:46:25.582Z,4.03
2023-01-25T17:48:53.512Z,5.15
2023-01-25T17:51:21.868Z,3.97
2023-01-25T17:53:50.090Z,4.07
2023-01-25T17:56:18.888Z,3.05
2023-01-25T17:58:45.893Z,3.85
2023-01-25T18:01:18.498Z,3.38
2023-01-25T18:03:46.353Z,3.13
2023-01-25T18:06:16.873Z,2.70
2023-01-25T18:08:49.071Z,2.33
2023-01-25T18:11:19.494Z,2.65
2023-01-25T18:13:48.620Z,2.20
2023-01-25T18:16:17.213Z,2.95
2023-01-25T18:18:45.342Z,2.75
2023-01-25T18:21:23.869Z,2.92
2023-01-25T18:23:53.196Z,2.72
2023-01-25T18:26:25.888Z,2.53
2023-01-25T18:29:19.363Z,2.60
2023-01-25T18:31:46.315Z,2.40
2023-01-25T18:34:13.466Z,3.40
2023-01-25T18:36:40.255Z,2.40
2023-01-25T18:39:08.518Z,2.42
2023-01-25T18:41:35.236Z,2.55
2023-01-25T18:44:02.062Z,3.00
2023-01-25T18:46:28.921Z,3.30
2023-01-25T18:48:55.780Z,3.70
2023-01-25T18:51:23.187Z,3.10
2023-01-25T18:53:51.119Z,3.00
2023-01-25T18:56:20.377Z,4.07
2023-01-25T18:58:48.236Z,3.03
2023-01-25T19:01:17.498Z,3.45
2023-01-25T19:03:46.008Z,2.50
2023-01-25T19:06:13.030Z,3.40
2023-01-25T19:08:44.490Z,3.30
2023-01-25T19:11:14.401Z,3.83
2023-01-25T19:13:42.200Z,3.20
2023-01-25T19:16:19.790Z,2.88
2023-01-25T19:18:49.701Z,3.45
2023-01-25T19:21:19.125Z,4.00
2023-01-25T19:23:46.704Z,3.20
2023-01-25T19:26:15.838Z,3.85
2023-01-25T19:28:42.897Z,2.47
2023-01-25T19:31:18.338Z,2.63
2023-01-25T19:33:45.556Z,3.22
2023-01-25T19:36:18.453Z,2.65
2023-01-25T19:38:46.429Z,3.65
2023-01-25T19:41:18.209Z,3.05
2023-01-25T19:43:45.065Z,2.45
2023-01-25T19:46:13.126Z,2.95
2023-01-25T19:48:41.013Z,3.22
2023-01-25T19:51:16.715Z,2.50
2023-01-25T19:53:46.451Z,2.47
2023-01-25T19:56:17.971Z,2.40
2023-01-25T19:58:46.024Z,2.60
2023-01-25T20:01:15.300Z,2.47
2023-01-25T20:03:42.654Z,2.30
2023-01-25T20:06:10.628Z,2.50
2023-01-25T20:08:39.385Z,2.80
2023-01-25T20:11:13.728Z,2.75
2023-01-25T20:13:41.478Z,2.00
2023-01-25T20:16:10.319Z,3.10
2023-01-25T20:18:37.132Z,2.22
2023-01-25T20:21:10.004Z,2.60
2023-01-25T20:23:39.702Z,2.17
2023-01-25T20:26:16.130Z,2.45
2023-01-25T20:28:44.617Z,2.30
2023-01-25T20:31:23.735Z,2.30
2023-01-25T20:33:52.859Z,2.40
2023-01-25T20:36:19.747Z,2.13
2023-01-25T20:38:46.706Z,2.38
2023-01-25T20:41:15.591Z,2.78
2023-01-25T20:43:47.254Z,2.33
2023-01-25T20:46:14.739Z,2.10
2023-01-25T20:48:41.660Z,2.10
2023-01-25T20:51:10.486Z,2.53
2023-01-25T20:53:37.256Z,2.58
2023-01-25T20:56:04.210Z,2.30
2023-01-25T20:58:30.937Z,2.10
2023-01-25T21:00:58.141Z,1.80
2023-01-25T21:03:25.216Z,2.13
2023-01-25T21:05:56.874Z,1.80
2023-01-25T21:08:25.241Z,1.98
2023-01-25T21:10:56.322Z,1.73
2023-01-25T21:13:23.685Z,1.90
2023-01-25T21:16:00.834Z,1.83
2023-01-25T21:18:32.759Z,1.77
2023-01-25T21:21:11.365Z,2.00
2023-01-25T21:23:40.247Z,2.28
2023-01-25T21:26:10.288Z,1.67
2023-01-25T21:28:37.085Z,1.70
2023-01-25T21:31:08.883Z,2.20
2023-01-25T21:33:39.244Z,2.40
2023-01-25T21:36:08.529Z,2.55
2023-01-25T21:38:36.003Z,2.33
2023-01-25T21:41:04.641Z,2.20
2023-01-25T21:43:52.844Z,2.05
2023-01-25T21:46:27.784Z,1.85
2023-01-25T21:49:20.341Z,1.60
2023-01-25T21:51:49.710Z,1.50
2023-01-25T21:54:27.919Z,1.83
2023-01-25T21:56:56.513Z,1.50
2023-01-25T21:59:23.519Z,1.83
2023-01-25T22:01:51.070Z,1.65
2023-01-25T22:04:19.355Z,2.17
2023-01-25T22:06:48.579Z,2.03
2023-01-25T22:09:15.533Z,1.40
2023-01-25T22:11:45.730Z,1.63
2023-01-25T22:14:13.545Z,1.67
2023-01-25T22:16:40.411Z,1.60
2023-01-25T22:19:07.383Z,2.60
2023-01-25T22:21:34.178Z,3.55
2023-01-25T22:24:03.589Z,2.08
2023-01-25T22:26:39.394Z,2.80
2023-01-25T22:29:06.102Z,2.72
2023-01-25T22:31:32.931Z,2.63
2023-01-25T22:33:59.783Z,2.60
2023-01-25T22:36:28.322Z,3.00
2023-01-25T22:38:55.489Z,3.22
2023-01-25T22:41:28.074Z,3.30
2023-01-25T22:43:55.414Z,3.70
2023-01-25T22:46:28.033Z,3.33
2023-01-25T22:48:55.150Z,3.25
2023-01-25T22:51:25.627Z,3.92
2023-01-25T22:53:53.233Z,3.40
2023-01-25T22:56:25.942Z,3.45
2023-01-25T22:58:52.947Z,3.90
2023-01-25T23:01:31.169Z,3.78
2023-01-25T23:03:58.329Z,3.65
2023-01-25T23:06:30.478Z,3.75
2023-01-25T23:08:59.850Z,3.67
2023-01-25T23:11:38.212Z,3.97
2023-01-25T23:14:29.539Z,4.03
2023-01-25T23:17:16.351Z,3.45
2023-01-25T23:19:43.096Z,4.00
2023-01-25T23:22:09.921Z,4.10
2023-01-25T23:24:36.596Z,4.13
2023-01-25T23:27:03.452Z,4.82
2023-01-25T23:29:30.273Z,4.05
2023-01-25T23:31:57.041Z,4.13
2023-01-25T23:34:23.862Z,4.45
2023-01-25T23:36:50.540Z,4.63
2023-01-25T23:39:17.343Z,4.63
2023-01-25T23:41:44.120Z,4.78
2023-01-25T23:44:10.843Z,4.47
2023-01-25T23:46:37.592Z,5.03
2023-01-25T23:49:04.474Z,5.68
2023-01-25T23:51:31.281Z,5.43
2023-01-25T23:53:58.388Z,5.18
2023-01-25T23:56:25.694Z,5.63
2023-01-25T23:58:52.503Z,5.65
